5Q2 weather

US Forest Service Chester Heliport
Chester, California, United States

Public forecast

Using degrees Fahrenheit for public forecast. Weather courtesy of forecast.io.

Closest aviation weather report (METAR) to US Forest Service Chester Heliport

Closest report is Chico Municipal Airport, 40.9 nm (75.8 km) SW. Retrieved 2019/10/21 15:51 UTC (37 minutes ago):

KCIC 211551Z 33006KT 40SM FEW180 14/05 A3020

Closest aviation forecast (TAF) to US Forest Service Chester Heliport

Closest forecast is Red Bluff Municipal Airport, 47.0 nm (87.0 km) W. Retrieved 2019/10/21 12:27 UTC (4 hours ago):

TAF KRBL 211124Z 2112/2212 35010KT P6SM SKC FM220300 33005KT P6SM SKC